createdAt,value
2023-05-12T00:01:46.570Z,102200.29
2023-05-12T00:04:14.662Z,102198.31
2023-05-12T00:06:42.810Z,102200.82
2023-05-12T00:09:10.937Z,102199.52
2023-05-12T00:11:39.053Z,102203.98
2023-05-12T00:14:07.366Z,102205.71
2023-05-12T00:16:35.351Z,102204.29
2023-05-12T00:19:03.686Z,102208.99
2023-05-12T00:21:32.633Z,102207.88
2023-05-12T00:24:00.557Z,102206.81
2023-05-12T00:26:28.582Z,102210.86
2023-05-12T00:28:56.995Z,102201.83
2023-05-12T00:31:25.456Z,102201.84
2023-05-12T00:33:53.535Z,102199.48
2023-05-12T00:36:21.658Z,102200.48
2023-05-12T00:38:49.976Z,102203.76
2023-05-12T00:41:18.096Z,102199.64
2023-05-12T00:43:46.646Z,102201.66
2023-05-12T00:46:14.893Z,102200.52
2023-05-12T00:48:44.571Z,102201.02
2023-05-12T00:51:13.632Z,102200.86
2023-05-12T00:53:49.730Z,102198.27
2023-05-12T00:56:20.158Z,102201.14
2023-05-12T00:58:48.517Z,102202.48
2023-05-12T01:01:18.057Z,102208.27
2023-05-12T01:03:47.272Z,102212.05
2023-05-12T01:06:26.993Z,102213.05
2023-05-12T01:08:55.915Z,102213.73
2023-05-12T01:11:24.634Z,102212.23
2023-05-12T01:13:52.659Z,102212.95
2023-05-12T01:16:25.494Z,102211.17
2023-05-12T01:18:56.101Z,102211.98
2023-05-12T01:21:24.859Z,102206.92
2023-05-12T01:23:58.727Z,102203.65
2023-05-12T01:26:30.052Z,102200.96
2023-05-12T01:28:59.146Z,102196.11
2023-05-12T01:31:29.025Z,102199.81
2023-05-12T01:33:57.185Z,102200.52
2023-05-12T01:36:26.309Z,102203.16
2023-05-12T01:38:55.229Z,102202.64
2023-05-12T01:41:23.349Z,102204.86
2023-05-12T01:43:51.567Z,102205.94
2023-05-12T01:46:19.708Z,102202.11
2023-05-12T01:48:48.109Z,102201.95
2023-05-12T01:51:17.534Z,102199.15
2023-05-12T01:53:45.953Z,102203.07
2023-05-12T01:56:14.571Z,102201.05
2023-05-12T01:58:42.871Z,102200.70
2023-05-12T02:01:11.314Z,102205.02
2023-05-12T02:03:39.601Z,102206.98
2023-05-12T02:06:11.871Z,102201.07
2023-05-12T02:08:40.190Z,102200.71
2023-05-12T02:11:09.882Z,102201.88
2023-05-12T02:13:38.943Z,102201.60
2023-05-12T02:16:07.887Z,102198.30
2023-05-12T02:18:36.206Z,102200.42
2023-05-12T02:21:06.609Z,102196.63
2023-05-12T02:23:34.628Z,102192.01
2023-05-12T02:26:02.748Z,102193.39
2023-05-12T02:28:30.768Z,102192.82
2023-05-12T02:30:59.090Z,102191.50
2023-05-12T02:33:27.507Z,102191.19
2023-05-12T02:35:55.630Z,102191.21
2023-05-12T02:38:23.751Z,102193.86
2023-05-12T02:40:52.365Z,102193.52
2023-05-12T02:43:21.100Z,102191.40
2023-05-12T02:45:49.342Z,102197.55
2023-05-12T02:48:17.638Z,102196.16
2023-05-12T02:50:45.953Z,102191.63
2023-05-12T02:53:14.019Z,102186.54
2023-05-12T02:55:42.200Z,102188.66
2023-05-12T02:58:10.517Z,102185.98
2023-05-12T03:00:38.550Z,102187.23
2023-05-12T03:03:07.048Z,102185.10
2023-05-12T03:05:35.282Z,102187.98
2023-05-12T03:08:03.714Z,102190.98
2023-05-12T03:10:31.823Z,102194.66
2023-05-12T03:12:59.842Z,102195.66
2023-05-12T03:15:27.962Z,102197.59
2023-05-12T03:17:56.508Z,102201.79
2023-05-12T03:20:24.618Z,102202.98
2023-05-12T03:22:52.726Z,102203.98
2023-05-12T03:25:21.039Z,102208.23
2023-05-12T03:27:49.163Z,102206.81
2023-05-12T03:30:17.495Z,102212.11
2023-05-12T03:32:46.468Z,102210.71
2023-05-12T03:35:14.922Z,102212.42
2023-05-12T03:37:43.054Z,102215.17
2023-05-12T03:40:11.776Z,102217.96
2023-05-12T03:42:39.685Z,102220.46
2023-05-12T03:45:10.148Z,102223.48
2023-05-12T03:47:40.681Z,102225.95
2023-05-12T03:50:09.763Z,102227.34
2023-05-12T03:52:38.787Z,102226.38
2023-05-12T03:55:08.814Z,102224.85
2023-05-12T03:57:37.852Z,102225.19
2023-05-12T04:00:06.559Z,102229.17
2023-05-12T04:02:47.196Z,102225.42
2023-05-12T04:05:15.562Z,102226.69
2023-05-12T04:07:43.595Z,102227.02
2023-05-12T04:10:11.682Z,102230.38
2023-05-12T04:12:39.820Z,102227.45
2023-05-12T04:15:09.416Z,102229.38
2023-05-12T04:17:37.478Z,102227.92
2023-05-12T04:20:06.933Z,102230.84
2023-05-12T04:22:35.000Z,102236.38
2023-05-12T04:25:03.310Z,102230.89
2023-05-12T04:27:31.346Z,102234.10
2023-05-12T04:29:59.352Z,102236.14
2023-05-12T04:32:27.802Z,102229.95
2023-05-12T04:34:56.808Z,102230.52
2023-05-12T04:37:24.915Z,102229.18
2023-05-12T04:39:53.642Z,102228.05
2023-05-12T04:42:22.065Z,102227.45
2023-05-12T04:44:50.098Z,102229.63
2023-05-12T04:47:18.155Z,102230.81
2023-05-12T04:49:46.217Z,102229.88
2023-05-12T04:52:15.849Z,102224.65
2023-05-12T04:54:43.862Z,102229.04
2023-05-12T04:57:11.991Z,102227.06
2023-05-12T04:59:42.642Z,102229.04
2023-05-12T05:02:11.917Z,102233.80
2023-05-12T05:04:40.363Z,102228.96
2023-05-12T05:07:08.789Z,102230.17
2023-05-12T05:09:36.928Z,102228.60
2023-05-12T05:12:05.723Z,102226.41
2023-05-12T05:14:34.292Z,102224.11
2023-05-12T05:17:03.782Z,102224.02
2023-05-12T05:19:46.239Z,102226.84
2023-05-12T05:22:20.091Z,102223.92
2023-05-12T05:24:48.198Z,102230.78
2023-05-12T05:27:17.109Z,102234.46
2023-05-12T05:29:45.444Z,102234.77
2023-05-12T05:32:13.656Z,102232.60
2023-05-12T05:34:41.746Z,102237.79
2023-05-12T05:37:10.002Z,102236.16
2023-05-12T05:39:38.823Z,102239.13
2023-05-12T05:42:07.142Z,102236.91
2023-05-12T05:44:36.368Z,102239.80
2023-05-12T05:47:06.183Z,102237.09
2023-05-12T05:49:35.513Z,102240.96
2023-05-12T05:52:04.043Z,102244.08
2023-05-12T05:54:32.158Z,102244.64
2023-05-12T05:57:02.380Z,102241.23
2023-05-12T05:59:31.201Z,102241.63
2023-05-12T06:01:59.486Z,102242.91
2023-05-12T06:04:28.352Z,102243.90
2023-05-12T06:06:57.167Z,102245.34
2023-05-12T06:09:25.388Z,102242.40
2023-05-12T06:11:53.413Z,102237.62
2023-05-12T06:14:22.331Z,102241.48
2023-05-12T06:16:50.368Z,102243.21
2023-05-12T06:19:18.572Z,102236.11
2023-05-12T06:21:46.690Z,102237.89
2023-05-12T06:24:14.809Z,102239.95
2023-05-12T06:26:43.132Z,102242.98
2023-05-12T06:29:11.158Z,102242.97
2023-05-12T06:31:39.548Z,102241.88
2023-05-12T06:34:07.593Z,102244.00
2023-05-12T06:36:35.618Z,102236.70
2023-05-12T06:39:04.555Z,102237.67
2023-05-12T06:41:33.767Z,102236.11
2023-05-12T06:44:02.587Z,102238.46
2023-05-12T06:46:30.655Z,102241.64
2023-05-12T06:49:00.447Z,102244.47
2023-05-12T06:51:28.658Z,102246.08
2023-05-12T06:53:56.670Z,102244.63
2023-05-12T06:56:24.788Z,102244.27
2023-05-12T06:58:54.422Z,102241.23
2023-05-12T07:01:22.738Z,102245.18
2023-05-12T07:03:51.107Z,102249.33
2023-05-12T07:06:19.598Z,102250.02
2023-05-12T07:08:48.398Z,102243.56
2023-05-12T07:11:20.236Z,102244.59
2023-05-12T07:13:49.354Z,102246.70
2023-05-12T07:16:18.860Z,102246.59
2023-05-12T07:18:47.137Z,102246.04
2023-05-12T07:21:15.841Z,102242.93
2023-05-12T07:23:43.942Z,102243.65
2023-05-12T07:26:12.061Z,102245.61
2023-05-12T07:28:40.184Z,102242.70
2023-05-12T07:31:08.876Z,102246.77
2023-05-12T07:33:37.588Z,102246.76
2023-05-12T07:36:06.131Z,102245.41
2023-05-12T07:38:34.062Z,102245.85
2023-05-12T07:41:02.290Z,102243.14
2023-05-12T07:43:30.406Z,102242.08
2023-05-12T07:45:59.524Z,102238.20
2023-05-12T07:48:27.548Z,102240.77
2023-05-12T07:50:55.577Z,102240.98
2023-05-12T07:53:23.592Z,102237.39
2023-05-12T07:55:51.932Z,102241.84
2023-05-12T07:58:19.829Z,102245.13
2023-05-12T08:00:48.054Z,102239.65
2023-05-12T08:03:16.788Z,102242.67
2023-05-12T08:05:44.890Z,102239.47
2023-05-12T08:08:16.885Z,102237.20
2023-05-12T08:10:45.173Z,102241.52
2023-05-12T08:13:13.258Z,102240.62
2023-05-12T08:15:41.389Z,102244.89
2023-05-12T08:18:09.689Z,102247.77
2023-05-12T08:20:37.923Z,102244.52
2023-05-12T08:23:05.946Z,102245.89
2023-05-12T08:25:36.072Z,102247.22
2023-05-12T08:28:04.747Z,102246.92
2023-05-12T08:30:33.035Z,102246.97
2023-05-12T08:33:01.871Z,102249.45
2023-05-12T08:35:30.647Z,102246.05
2023-05-12T08:37:59.584Z,102247.89
2023-05-12T08:40:31.272Z,102247.73
2023-05-12T08:43:08.078Z,102252.02
2023-05-12T08:45:38.426Z,102254.45
2023-05-12T08:48:09.935Z,102258.79
2023-05-12T08:50:39.253Z,102253.37
2023-05-12T08:53:12.346Z,102257.54
2023-05-12T08:55:48.232Z,102256.77
2023-05-12T08:58:37.886Z,102254.26
2023-05-12T09:01:08.904Z,102254.23
2023-05-12T09:03:39.838Z,102255.50
2023-05-12T09:06:09.463Z,102255.95
2023-05-12T09:08:38.026Z,102249.67
2023-05-12T09:11:06.059Z,102250.30
2023-05-12T09:13:56.954Z,102253.84
2023-05-12T09:16:27.826Z,102253.90
2023-05-12T09:18:59.653Z,102256.16
2023-05-12T09:21:28.558Z,102254.36
2023-05-12T09:24:05.929Z,102254.02
2023-05-12T09:26:56.026Z,102253.98
2023-05-12T09:29:31.893Z,102250.29
2023-05-12T09:32:03.941Z,102250.77
2023-05-12T09:34:38.865Z,102251.44
2023-05-12T09:37:08.364Z,102246.27
2023-05-12T09:39:37.026Z,102245.75
2023-05-12T09:42:12.368Z,102246.02
2023-05-12T09:44:41.424Z,102244.48
2023-05-12T09:47:10.703Z,102241.93
2023-05-12T09:49:38.969Z,102244.85
2023-05-12T09:52:07.221Z,102243.48
2023-05-12T09:54:35.308Z,102241.64
2023-05-12T09:57:08.849Z,102243.38
2023-05-12T09:59:39.694Z,102244.20
2023-05-12T10:02:09.708Z,102241.55
2023-05-12T10:04:47.931Z,102244.23
2023-05-12T10:07:17.998Z,102245.88
2023-05-12T10:09:48.522Z,102243.05
2023-05-12T10:12:17.041Z,102243.83
2023-05-12T10:14:46.465Z,102242.96
2023-05-12T10:17:15.536Z,102242.52
2023-05-12T10:19:44.918Z,102238.91
2023-05-12T10:22:16.264Z,102238.90
2023-05-12T10:24:45.876Z,102238.10
2023-05-12T10:27:16.094Z,102239.46
2023-05-12T10:29:47.016Z,102236.21
2023-05-12T10:32:16.090Z,102236.05
2023-05-12T10:34:44.969Z,102233.75
2023-05-12T10:37:13.296Z,102235.73
2023-05-12T10:40:01.277Z,102234.64
2023-05-12T10:42:41.047Z,102234.70
2023-05-12T10:45:20.564Z,102233.84
2023-05-12T10:47:48.949Z,102234.36
2023-05-12T10:50:29.654Z,102235.23
2023-05-12T10:52:58.072Z,102233.34
2023-05-12T10:55:43.416Z,102236.63
2023-05-12T10:58:13.325Z,102234.27
2023-05-12T11:00:51.818Z,102237.42
2023-05-12T11:03:25.823Z,102236.90
2023-05-12T11:06:05.592Z,102239.11
2023-05-12T11:08:36.007Z,102239.38
2023-05-12T11:11:04.356Z,102240.76
2023-05-12T11:13:32.433Z,102239.34
2023-05-12T11:16:00.475Z,102234.05
2023-05-12T11:18:28.703Z,102233.30
2023-05-12T11:20:56.996Z,102233.29
2023-05-12T11:23:29.778Z,102233.08
2023-05-12T11:25:58.105Z,102238.79
2023-05-12T11:28:26.078Z,102238.09
2023-05-12T11:30:55.534Z,102236.00
2023-05-12T11:33:24.020Z,102236.06
2023-05-12T11:35:51.957Z,102236.92
2023-05-12T11:38:20.161Z,102238.09
2023-05-12T11:40:48.277Z,102240.52
2023-05-12T11:43:20.909Z,102239.91
2023-05-12T11:45:49.071Z,102237.43
2023-05-12T11:48:17.242Z,102235.15
2023-05-12T11:50:48.796Z,102242.93
2023-05-12T11:53:19.927Z,102241.29
2023-05-12T11:55:53.053Z,102238.61
2023-05-12T11:58:27.083Z,102240.97
2023-05-12T12:00:55.519Z,102239.59
2023-05-12T12:03:25.595Z,102242.98
2023-05-12T12:06:02.703Z,102240.40
2023-05-12T12:08:31.135Z,102240.78
2023-05-12T12:11:00.932Z,102240.02
2023-05-12T12:13:30.873Z,102240.08
2023-05-12T12:15:59.007Z,102242.77
2023-05-12T12:18:27.174Z,102242.53
2023-05-12T12:20:55.250Z,102242.52
2023-05-12T12:23:23.227Z,102239.27
2023-05-12T12:25:51.673Z,102239.49
2023-05-12T12:28:20.556Z,102237.45
2023-05-12T12:30:48.613Z,102236.48
2023-05-12T12:33:18.781Z,102235.77
2023-05-12T12:35:48.567Z,102233.42
2023-05-12T12:38:16.786Z,102230.45
2023-05-12T12:40:44.814Z,102225.15
2023-05-12T12:43:12.822Z,102223.58
2023-05-12T12:45:40.848Z,102226.20
2023-05-12T12:48:09.376Z,102223.94
2023-05-12T12:50:37.593Z,102217.15
2023-05-12T12:53:06.368Z,102218.86
2023-05-12T12:55:34.423Z,102218.46
2023-05-12T12:58:02.452Z,102218.05
2023-05-12T13:00:30.565Z,102216.45
2023-05-12T13:03:00.553Z,102217.64
2023-05-12T13:05:28.819Z,102216.88
2023-05-12T13:07:56.835Z,102216.70
2023-05-12T13:10:25.658Z,102212.70
2023-05-12T13:12:54.175Z,102208.52
2023-05-12T13:15:22.472Z,102212.58
2023-05-12T13:17:51.997Z,102213.32
2023-05-12T13:20:20.239Z,102211.10
2023-05-12T13:22:48.558Z,102209.32
2023-05-12T13:25:16.584Z,102207.81
2023-05-12T13:27:44.597Z,102211.45
2023-05-12T13:30:13.956Z,102210.58
2023-05-12T13:32:42.333Z,102209.99
2023-05-12T13:35:10.763Z,102210.27
2023-05-12T13:37:38.690Z,102208.36
2023-05-12T13:40:07.725Z,102209.69
2023-05-12T13:42:36.126Z,102211.36
2023-05-12T13:45:05.158Z,102208.30
2023-05-12T13:47:33.318Z,102207.66
2023-05-12T13:50:01.285Z,102203.89
2023-05-12T13:52:29.306Z,102205.90
2023-05-12T13:54:57.330Z,102208.38
2023-05-12T13:57:26.055Z,102208.45
2023-05-12T13:59:57.881Z,102209.25
2023-05-12T14:02:25.931Z,102209.27
2023-05-12T14:04:55.453Z,102207.33
2023-05-12T14:07:23.748Z,102207.20
2023-05-12T14:09:51.763Z,102208.48
2023-05-12T14:12:19.783Z,102210.63
2023-05-12T14:14:50.156Z,102211.34
2023-05-12T14:17:18.836Z,102212.64
2023-05-12T14:19:46.963Z,102211.63
2023-05-12T14:22:25.485Z,102210.14
2023-05-12T14:24:55.952Z,102214.15
2023-05-12T14:27:24.367Z,102215.52
2023-05-12T14:29:52.394Z,102213.04
2023-05-12T14:32:20.500Z,102213.15
2023-05-12T14:34:48.524Z,102215.66
2023-05-12T14:37:16.558Z,102214.54
2023-05-12T14:39:44.768Z,102214.63
2023-05-12T14:42:13.599Z,102206.08
2023-05-12T14:44:41.698Z,102205.85
2023-05-12T14:47:09.727Z,102208.38
2023-05-12T14:49:37.743Z,102210.66
2023-05-12T14:52:06.629Z,102210.66
2023-05-12T14:54:34.810Z,102209.31
2023-05-12T14:57:03.819Z,102208.87
2023-05-12T14:59:31.927Z,102206.56
2023-05-12T15:02:00.116Z,102202.80
2023-05-12T15:04:28.283Z,102202.19
2023-05-12T15:06:56.289Z,102200.23
2023-05-12T15:09:24.605Z,102197.44
2023-05-12T15:11:52.830Z,102193.66
2023-05-12T15:14:20.852Z,102193.65
2023-05-12T15:16:48.995Z,102196.52
2023-05-12T15:19:17.776Z,102197.27
2023-05-12T15:21:45.916Z,102193.86
2023-05-12T15:24:13.930Z,102191.48
2023-05-12T15:26:42.052Z,102193.02
2023-05-12T15:29:10.035Z,102190.48
2023-05-12T15:31:38.169Z,102192.03
2023-05-12T15:34:07.414Z,102190.07
2023-05-12T15:36:35.451Z,102189.25
2023-05-12T15:39:03.563Z,102184.09
2023-05-12T15:41:31.692Z,102185.10
2023-05-12T15:43:59.796Z,102184.14
2023-05-12T15:46:27.899Z,102183.91
2023-05-12T15:48:56.039Z,102177.84
2023-05-12T15:51:24.058Z,102183.42
2023-05-12T15:53:52.150Z,102181.86
2023-05-12T15:56:22.124Z,102182.95
2023-05-12T15:58:50.221Z,102180.11
2023-05-12T16:01:18.485Z,102178.77
2023-05-12T16:03:46.672Z,102178.36
2023-05-12T16:06:14.880Z,102178.67
2023-05-12T16:08:43.209Z,102177.40
2023-05-12T16:11:12.621Z,102176.38
2023-05-12T16:13:41.245Z,102174.05
2023-05-12T16:16:09.488Z,102170.84
2023-05-12T16:18:37.880Z,102169.20
2023-05-12T16:21:06.503Z,102169.49
2023-05-12T16:23:34.627Z,102176.49
2023-05-12T16:26:02.862Z,102176.10
2023-05-12T16:28:33.274Z,102173.96
2023-05-12T16:31:03.467Z,102177.40
2023-05-12T16:33:31.524Z,102181.13
2023-05-12T16:35:59.543Z,102182.42
2023-05-12T16:38:27.661Z,102182.99
2023-05-12T16:40:55.679Z,102188.16
2023-05-12T16:43:23.801Z,102187.39
2023-05-12T16:46:02.412Z,102190.39
2023-05-12T16:48:34.642Z,102191.25
2023-05-12T16:51:07.579Z,102195.60
2023-05-12T16:53:36.059Z,102197.46
2023-05-12T16:56:04.266Z,102199.61
2023-05-12T16:58:32.505Z,102202.02
2023-05-12T17:01:01.773Z,102200.91
2023-05-12T17:03:30.272Z,102203.78
2023-05-12T17:05:58.550Z,102203.39
2023-05-12T17:08:27.077Z,102202.91
2023-05-12T17:10:54.998Z,102205.54
2023-05-12T17:13:23.328Z,102205.10
2023-05-12T17:15:51.558Z,102207.82
2023-05-12T17:18:19.767Z,102205.55
2023-05-12T17:20:47.773Z,102204.10
2023-05-12T17:23:15.906Z,102207.69
2023-05-12T17:25:44.014Z,102206.53
2023-05-12T17:28:12.034Z,102210.42
2023-05-12T17:30:40.252Z,102209.66
2023-05-12T17:33:08.687Z,102212.39
2023-05-12T17:35:36.724Z,102214.75
2023-05-12T17:38:05.435Z,102216.34
2023-05-12T17:40:33.988Z,102218.27
2023-05-12T17:43:02.067Z,102220.76
2023-05-12T17:45:30.288Z,102223.20
2023-05-12T17:47:58.775Z,102226.09
2023-05-12T17:50:27.021Z,102227.25
2023-05-12T17:52:55.842Z,102233.02
2023-05-12T17:55:23.963Z,102234.00
2023-05-12T17:57:52.896Z,102241.19
2023-05-12T18:00:21.009Z,102245.72
2023-05-12T18:02:49.921Z,102247.29
2023-05-12T18:05:18.191Z,102244.79
2023-05-12T18:07:46.276Z,102249.55
2023-05-12T18:10:14.291Z,102248.41
2023-05-12T18:12:42.513Z,102245.63
2023-05-12T18:15:11.232Z,102249.47
2023-05-12T18:17:39.346Z,102251.35
2023-05-12T18:20:08.841Z,102248.31
2023-05-12T18:22:37.005Z,102248.19
2023-05-12T18:25:05.518Z,102250.98
2023-05-12T18:27:33.435Z,102249.52
2023-05-12T18:30:01.796Z,102248.77
2023-05-12T18:32:31.212Z,102251.91
2023-05-12T18:35:00.011Z,102254.77
2023-05-12T18:37:28.326Z,102252.00
2023-05-12T18:39:58.484Z,102253.48
2023-05-12T18:42:26.677Z,102253.81
2023-05-12T18:44:54.791Z,102247.70
2023-05-12T18:47:22.948Z,102251.28
2023-05-12T18:49:51.139Z,102248.69
2023-05-12T18:52:21.057Z,102250.59
2023-05-12T18:54:49.834Z,102247.59
2023-05-12T18:57:18.508Z,102244.59
2023-05-12T18:59:46.528Z,102247.13
2023-05-12T19:02:14.641Z,102245.80
2023-05-12T19:04:42.908Z,102243.83
2023-05-12T19:07:15.494Z,102246.88
2023-05-12T19:09:44.437Z,102244.56
2023-05-12T19:12:12.438Z,102241.11
2023-05-12T19:14:40.977Z,102244.95
2023-05-12T19:17:08.983Z,102241.30
2023-05-12T19:19:37.001Z,102243.48
2023-05-12T19:22:05.645Z,102244.52
2023-05-12T19:24:34.180Z,102240.61
2023-05-12T19:27:02.259Z,102238.67
2023-05-12T19:29:30.284Z,102238.13
2023-05-12T19:31:58.333Z,102234.49
2023-05-12T19:34:27.039Z,102236.95
2023-05-12T19:36:56.353Z,102235.16
2023-05-12T19:39:24.371Z,102237.23
2023-05-12T19:41:52.510Z,102237.46
2023-05-12T19:44:20.815Z,102235.69
2023-05-12T19:46:48.928Z,102234.06
2023-05-12T19:49:17.048Z,102233.50
2023-05-12T19:51:45.170Z,102231.20
2023-05-12T19:54:13.643Z,102227.30
2023-05-12T19:56:41.634Z,102230.98
2023-05-12T19:59:09.635Z,102227.36
2023-05-12T20:01:37.813Z,102226.02
2023-05-12T20:04:06.098Z,102224.91
2023-05-12T20:06:34.288Z,102225.53
2023-05-12T20:09:02.615Z,102229.17
2023-05-12T20:11:30.829Z,102228.16
2023-05-12T20:13:58.850Z,102227.21
2023-05-12T20:16:27.368Z,102228.20
2023-05-12T20:18:55.634Z,102226.16
2023-05-12T20:21:23.714Z,102224.11
2023-05-12T20:23:51.728Z,102230.23
2023-05-12T20:26:20.555Z,102228.09
2023-05-12T20:28:48.773Z,102230.02
2023-05-12T20:31:17.547Z,102228.36
2023-05-12T20:33:45.813Z,102229.13
2023-05-12T20:36:13.804Z,102228.98
2023-05-12T20:38:41.956Z,102228.29
2023-05-12T20:41:10.074Z,102229.20
2023-05-12T20:43:38.195Z,102226.90
2023-05-12T20:46:06.257Z,102224.34
2023-05-12T20:48:34.341Z,102223.98
2023-05-12T20:51:14.712Z,102222.96
2023-05-12T20:53:42.869Z,102218.73
2023-05-12T20:56:11.922Z,102219.09
2023-05-12T20:58:41.166Z,102216.01
2023-05-12T21:01:09.285Z,102213.48
2023-05-12T21:03:37.644Z,102218.36
2023-05-12T21:06:06.018Z,102218.33
2023-05-12T21:08:34.259Z,102224.03
2023-05-12T21:11:02.971Z,102226.21
2023-05-12T21:13:31.086Z,102227.77
2023-05-12T21:15:59.115Z,102225.45
2023-05-12T21:18:27.170Z,102222.17
2023-05-12T21:20:55.241Z,102219.36
2023-05-12T21:23:23.264Z,102220.09
2023-05-12T21:25:54.193Z,102213.48
2023-05-12T21:28:22.313Z,102213.71
2023-05-12T21:30:50.428Z,102212.23
2023-05-12T21:33:18.856Z,102210.05
2023-05-12T21:35:47.069Z,102215.91
2023-05-12T21:38:15.216Z,102217.48
2023-05-12T21:40:43.310Z,102216.94
2023-05-12T21:43:11.443Z,102215.30
2023-05-12T21:45:39.459Z,102217.80
2023-05-12T21:48:07.868Z,102221.16
2023-05-12T21:50:35.900Z,102220.52
2023-05-12T21:53:04.219Z,102222.66
2023-05-12T21:55:32.759Z,102220.89
2023-05-12T21:58:00.856Z,102221.02
2023-05-12T22:00:28.990Z,102223.10
2023-05-12T22:02:57.031Z,102222.95
2023-05-12T22:05:25.214Z,102222.08
2023-05-12T22:07:53.279Z,102222.23
2023-05-12T22:10:21.625Z,102224.67
2023-05-12T22:12:49.878Z,102222.71
2023-05-12T22:15:18.499Z,102222.91
2023-05-12T22:17:47.766Z,102213.84
2023-05-12T22:20:17.456Z,102212.80
2023-05-12T22:22:45.568Z,102207.75
2023-05-12T22:25:13.590Z,102204.98
2023-05-12T22:27:42.013Z,102203.65
2023-05-12T22:30:10.784Z,102199.81
2023-05-12T22:32:38.916Z,102196.77
2023-05-12T22:35:07.975Z,102192.75
2023-05-12T22:37:36.511Z,102192.86
2023-05-12T22:40:05.099Z,102192.17
2023-05-12T22:42:33.138Z,102188.19
2023-05-12T22:45:04.790Z,102188.10
2023-05-12T22:47:33.029Z,102188.09
2023-05-12T22:50:01.324Z,102191.23
2023-05-12T22:52:29.434Z,102192.16
2023-05-12T22:54:57.450Z,102191.05
2023-05-12T22:57:25.887Z,102185.84
2023-05-12T22:59:53.989Z,102186.16
2023-05-12T23:02:22.026Z,102185.46
2023-05-12T23:04:50.134Z,102183.56
2023-05-12T23:07:18.149Z,102181.53
2023-05-12T23:09:46.369Z,102181.67
2023-05-12T23:12:14.388Z,102181.83
2023-05-12T23:14:42.415Z,102177.50
2023-05-12T23:17:10.831Z,102175.66
2023-05-12T23:19:40.303Z,102174.73
2023-05-12T23:22:08.268Z,102169.83
2023-05-12T23:24:36.694Z,102168.21
2023-05-12T23:27:05.028Z,102171.42
2023-05-12T23:29:34.677Z,102172.39
2023-05-12T23:32:03.320Z,102170.23
2023-05-12T23:34:31.441Z,102165.19
2023-05-12T23:36:59.500Z,102160.25
2023-05-12T23:39:27.519Z,102160.23
2023-05-12T23:41:55.706Z,102158.44
2023-05-12T23:44:23.862Z,102158.50
2023-05-12T23:46:52.262Z,102160.27
2023-05-12T23:49:20.347Z,102160.45
2023-05-12T23:51:48.419Z,102159.05
2023-05-12T23:54:16.440Z,102162.59
2023-05-12T23:56:44.473Z,102163.95
2023-05-12T23:59:12.479Z,102160.46
